sensor_id;sensor_type;location;lat;lon;timestamp;P1;durP1;ratioP1;P2;durP2;ratioP2
19179;SDS011;9722;48.754;8.868;2023-06-22T00:02:26;8.10;;;7.47;;
19179;SDS011;9722;48.754;8.868;2023-06-22T00:05:47;8.00;;;7.37;;
19179;SDS011;9722;48.754;8.868;2023-06-22T00:09:07;8.40;;;7.70;;
19179;SDS011;9722;48.754;8.868;2023-06-22T00:12:30;7.63;;;7.03;;
19179;SDS011;9722;48.754;8.868;2023-06-22T00:15:52;7.53;;;6.83;;
19179;SDS011;9722;48.754;8.868;2023-06-22T00:19:12;9.37;;;6.90;;
19179;SDS011;9722;48.754;8.868;2023-06-22T00:22:33;7.80;;;7.20;;
19179;SDS011;9722;48.754;8.868;2023-06-22T00:25:58;8.30;;;7.67;;
19179;SDS011;9722;48.754;8.868;2023-06-22T00:29:18;8.23;;;7.20;;
19179;SDS011;9722;48.754;8.868;2023-06-22T00:32:39;8.60;;;7.57;;
19179;SDS011;9722;48.754;8.868;2023-06-22T00:35:59;8.60;;;7.90;;
19179;SDS011;9722;48.754;8.868;2023-06-22T00:39:20;10.10;;;7.20;;
19179;SDS011;9722;48.754;8.868;2023-06-22T00:42:41;8.27;;;7.53;;
19179;SDS011;9722;48.754;8.868;2023-06-22T00:46:02;8.17;;;7.47;;
19179;SDS011;9722;48.754;8.868;2023-06-22T00:49:23;7.33;;;6.83;;
19179;SDS011;9722;48.754;8.868;2023-06-22T00:52:44;7.83;;;7.07;;
19179;SDS011;9722;48.754;8.868;2023-06-22T00:56:06;8.53;;;7.73;;
19179;SDS011;9722;48.754;8.868;2023-06-22T00:59:28;10.97;;;8.33;;
19179;SDS011;9722;48.754;8.868;2023-06-22T01:02:53;9.60;;;8.60;;
19179;SDS011;9722;48.754;8.868;2023-06-22T01:06:15;8.60;;;7.87;;
19179;SDS011;9722;48.754;8.868;2023-06-22T01:13:41;9.07;;;8.37;;
19179;SDS011;9722;48.754;8.868;2023-06-22T01:17:17;9.70;;;8.47;;
19179;SDS011;9722;48.754;8.868;2023-06-22T01:20:39;8.77;;;7.90;;
19179;SDS011;9722;48.754;8.868;2023-06-22T01:31:06;9.00;;;8.17;;
19179;SDS011;9722;48.754;8.868;2023-06-22T01:34:29;8.17;;;7.50;;
19179;SDS011;9722;48.754;8.868;2023-06-22T01:37:50;9.40;;;7.87;;
19179;SDS011;9722;48.754;8.868;2023-06-22T01:41:12;11.17;;;8.70;;
19179;SDS011;9722;48.754;8.868;2023-06-22T01:44:33;9.50;;;8.03;;
19179;SDS011;9722;48.754;8.868;2023-06-22T01:47:54;8.40;;;7.70;;
19179;SDS011;9722;48.754;8.868;2023-06-22T01:51:15;9.80;;;8.20;;
19179;SDS011;9722;48.754;8.868;2023-06-22T01:54:36;8.60;;;7.90;;
19179;SDS011;9722;48.754;8.868;2023-06-22T01:57:58;8.77;;;8.03;;
19179;SDS011;9722;48.754;8.868;2023-06-22T02:01:20;8.97;;;8.07;;
19179;SDS011;9722;48.754;8.868;2023-06-22T02:04:52;8.40;;;7.60;;
19179;SDS011;9722;48.754;8.868;2023-06-22T02:08:20;9.70;;;8.20;;
19179;SDS011;9722;48.754;8.868;2023-06-22T02:11:44;8.77;;;8.03;;
19179;SDS011;9722;48.754;8.868;2023-06-22T02:15:07;9.33;;;8.50;;
19179;SDS011;9722;48.754;8.868;2023-06-22T02:18:28;9.93;;;8.90;;
19179;SDS011;9722;48.754;8.868;2023-06-22T02:21:49;10.00;;;9.07;;
19179;SDS011;9722;48.754;8.868;2023-06-22T02:25:10;10.23;;;9.23;;
19179;SDS011;9722;48.754;8.868;2023-06-22T02:28:30;10.20;;;8.77;;
19179;SDS011;9722;48.754;8.868;2023-06-22T02:31:51;9.53;;;8.63;;
19179;SDS011;9722;48.754;8.868;2023-06-22T02:35:12;9.07;;;8.37;;
19179;SDS011;9722;48.754;8.868;2023-06-22T02:38:33;8.87;;;8.07;;
19179;SDS011;9722;48.754;8.868;2023-06-22T02:41:54;10.57;;;8.50;;
19179;SDS011;9722;48.754;8.868;2023-06-22T02:45:14;8.77;;;7.97;;
19179;SDS011;9722;48.754;8.868;2023-06-22T02:48:35;9.40;;;8.70;;
19179;SDS011;9722;48.754;8.868;2023-06-22T02:51:56;9.53;;;8.53;;
19179;SDS011;9722;48.754;8.868;2023-06-22T02:55:17;8.43;;;7.83;;
19179;SDS011;9722;48.754;8.868;2023-06-22T02:58:38;9.70;;;8.70;;
19179;SDS011;9722;48.754;8.868;2023-06-22T03:01:59;9.47;;;8.03;;
19179;SDS011;9722;48.754;8.868;2023-06-22T03:05:19;8.93;;;8.13;;
19179;SDS011;9722;48.754;8.868;2023-06-22T03:08:39;9.63;;;8.83;;
19179;SDS011;9722;48.754;8.868;2023-06-22T03:12:01;8.37;;;7.67;;
19179;SDS011;9722;48.754;8.868;2023-06-22T03:15:22;8.23;;;7.53;;
19179;SDS011;9722;48.754;8.868;2023-06-22T03:18:42;9.17;;;8.47;;
19179;SDS011;9722;48.754;8.868;2023-06-22T03:22:03;8.97;;;7.90;;
19179;SDS011;9722;48.754;8.868;2023-06-22T03:25:24;11.20;;;8.80;;
19179;SDS011;9722;48.754;8.868;2023-06-22T03:28:45;9.37;;;8.47;;
19179;SDS011;9722;48.754;8.868;2023-06-22T03:32:05;8.43;;;7.70;;
19179;SDS011;9722;48.754;8.868;2023-06-22T03:35:26;11.80;;;8.63;;
19179;SDS011;9722;48.754;8.868;2023-06-22T03:38:47;8.27;;;7.67;;
19179;SDS011;9722;48.754;8.868;2023-06-22T03:42:09;10.10;;;7.57;;
19179;SDS011;9722;48.754;8.868;2023-06-22T03:45:29;8.30;;;7.30;;
19179;SDS011;9722;48.754;8.868;2023-06-22T03:48:50;10.53;;;7.23;;
19179;SDS011;9722;48.754;8.868;2023-06-22T03:52:10;8.40;;;7.60;;
19179;SDS011;9722;48.754;8.868;2023-06-22T03:55:31;9.23;;;8.13;;
19179;SDS011;9722;48.754;8.868;2023-06-22T03:58:53;8.57;;;7.67;;
19179;SDS011;9722;48.754;8.868;2023-06-22T04:02:14;9.93;;;9.10;;
19179;SDS011;9722;48.754;8.868;2023-06-22T04:05:34;8.67;;;7.93;;
19179;SDS011;9722;48.754;8.868;2023-06-22T04:08:55;9.23;;;8.33;;
19179;SDS011;9722;48.754;8.868;2023-06-22T04:12:16;10.20;;;9.37;;
19179;SDS011;9722;48.754;8.868;2023-06-22T04:15:36;10.17;;;9.27;;
19179;SDS011;9722;48.754;8.868;2023-06-22T04:18:57;11.03;;;9.93;;
19179;SDS011;9722;48.754;8.868;2023-06-22T04:22:17;11.07;;;9.97;;
19179;SDS011;9722;48.754;8.868;2023-06-22T04:25:38;9.93;;;9.17;;
19179;SDS011;9722;48.754;8.868;2023-06-22T04:28:59;10.47;;;9.47;;
19179;SDS011;9722;48.754;8.868;2023-06-22T04:32:20;11.13;;;10.27;;
19179;SDS011;9722;48.754;8.868;2023-06-22T04:35:40;11.10;;;10.10;;
19179;SDS011;9722;48.754;8.868;2023-06-22T04:39:01;10.60;;;9.60;;
19179;SDS011;9722;48.754;8.868;2023-06-22T04:42:22;9.73;;;8.83;;
19179;SDS011;9722;48.754;8.868;2023-06-22T04:45:42;11.23;;;10.07;;
19179;SDS011;9722;48.754;8.868;2023-06-22T04:49:05;10.67;;;9.67;;
19179;SDS011;9722;48.754;8.868;2023-06-22T04:52:29;10.90;;;9.90;;
19179;SDS011;9722;48.754;8.868;2023-06-22T04:55:50;10.33;;;9.43;;
19179;SDS011;9722;48.754;8.868;2023-06-22T04:59:13;11.10;;;10.20;;
19179;SDS011;9722;48.754;8.868;2023-06-22T05:02:33;9.60;;;8.80;;
19179;SDS011;9722;48.754;8.868;2023-06-22T05:05:54;10.03;;;9.23;;
19179;SDS011;9722;48.754;8.868;2023-06-22T05:09:15;10.90;;;9.80;;
19179;SDS011;9722;48.754;8.868;2023-06-22T05:12:35;11.10;;;10.20;;
19179;SDS011;9722;48.754;8.868;2023-06-22T05:15:56;11.30;;;9.70;;
19179;SDS011;9722;48.754;8.868;2023-06-22T05:19:21;10.27;;;9.27;;
19179;SDS011;9722;48.754;8.868;2023-06-22T05:22:41;10.40;;;9.60;;
19179;SDS011;9722;48.754;8.868;2023-06-22T05:26:03;10.07;;;9.10;;
19179;SDS011;9722;48.754;8.868;2023-06-22T05:29:23;10.63;;;9.73;;
19179;SDS011;9722;48.754;8.868;2023-06-22T05:32:44;10.37;;;9.57;;
19179;SDS011;9722;48.754;8.868;2023-06-22T05:36:04;10.07;;;9.23;;
19179;SDS011;9722;48.754;8.868;2023-06-22T05:39:25;10.03;;;9.13;;
19179;SDS011;9722;48.754;8.868;2023-06-22T05:42:46;10.83;;;9.83;;
19179;SDS011;9722;48.754;8.868;2023-06-22T05:46:06;10.60;;;9.60;;
19179;SDS011;9722;48.754;8.868;2023-06-22T05:49:27;10.17;;;9.20;;
19179;SDS011;9722;48.754;8.868;2023-06-22T05:52:52;9.73;;;8.83;;
19179;SDS011;9722;48.754;8.868;2023-06-22T05:56:13;9.27;;;8.43;;
19179;SDS011;9722;48.754;8.868;2023-06-22T05:59:34;10.50;;;9.40;;
19179;SDS011;9722;48.754;8.868;2023-06-22T06:02:54;8.73;;;8.03;;
19179;SDS011;9722;48.754;8.868;2023-06-22T06:06:15;12.20;;;8.83;;
19179;SDS011;9722;48.754;8.868;2023-06-22T06:09:36;10.50;;;8.57;;
19179;SDS011;9722;48.754;8.868;2023-06-22T06:12:57;8.57;;;7.70;;
19179;SDS011;9722;48.754;8.868;2023-06-22T06:16:18;8.20;;;7.50;;
19179;SDS011;9722;48.754;8.868;2023-06-22T06:19:38;8.13;;;7.40;;
19179;SDS011;9722;48.754;8.868;2023-06-22T06:22:59;7.83;;;7.27;;
19179;SDS011;9722;48.754;8.868;2023-06-22T06:26:19;8.37;;;7.57;;
19179;SDS011;9722;48.754;8.868;2023-06-22T06:29:47;7.20;;;6.27;;
19179;SDS011;9722;48.754;8.868;2023-06-22T06:33:08;7.27;;;6.57;;
19179;SDS011;9722;48.754;8.868;2023-06-22T06:36:29;5.80;;;5.40;;
19179;SDS011;9722;48.754;8.868;2023-06-22T06:39:49;6.20;;;5.70;;
19179;SDS011;9722;48.754;8.868;2023-06-22T06:43:10;5.37;;;4.80;;
19179;SDS011;9722;48.754;8.868;2023-06-22T06:46:30;5.63;;;5.00;;
19179;SDS011;9722;48.754;8.868;2023-06-22T06:49:51;6.17;;;5.47;;
19179;SDS011;9722;48.754;8.868;2023-06-22T06:53:11;5.90;;;5.27;;
19179;SDS011;9722;48.754;8.868;2023-06-22T06:56:32;5.67;;;5.17;;
19179;SDS011;9722;48.754;8.868;2023-06-22T06:59:53;5.87;;;5.27;;
19179;SDS011;9722;48.754;8.868;2023-06-22T07:03:13;5.40;;;5.00;;
19179;SDS011;9722;48.754;8.868;2023-06-22T07:06:34;8.50;;;5.13;;
19179;SDS011;9722;48.754;8.868;2023-06-22T07:09:54;7.10;;;5.60;;
19179;SDS011;9722;48.754;8.868;2023-06-22T07:13:15;5.47;;;4.50;;
19179;SDS011;9722;48.754;8.868;2023-06-22T07:16:35;7.23;;;4.23;;
19179;SDS011;9722;48.754;8.868;2023-06-22T07:19:56;4.20;;;3.80;;
19179;SDS011;9722;48.754;8.868;2023-06-22T07:23:16;5.00;;;3.97;;
19179;SDS011;9722;48.754;8.868;2023-06-22T07:26:37;5.07;;;4.23;;
19179;SDS011;9722;48.754;8.868;2023-06-22T07:29:57;4.43;;;4.03;;
19179;SDS011;9722;48.754;8.868;2023-06-22T07:33:18;4.13;;;3.73;;
19179;SDS011;9722;48.754;8.868;2023-06-22T07:36:39;6.33;;;3.77;;
19179;SDS011;9722;48.754;8.868;2023-06-22T07:40:00;5.60;;;3.73;;
19179;SDS011;9722;48.754;8.868;2023-06-22T07:43:20;4.50;;;3.93;;
19179;SDS011;9722;48.754;8.868;2023-06-22T07:46:41;5.07;;;4.53;;
19179;SDS011;9722;48.754;8.868;2023-06-22T07:50:03;6.37;;;4.30;;
19179;SDS011;9722;48.754;8.868;2023-06-22T07:53:24;4.73;;;3.93;;
19179;SDS011;9722;48.754;8.868;2023-06-22T07:56:45;4.90;;;4.23;;
19179;SDS011;9722;48.754;8.868;2023-06-22T08:00:09;4.23;;;3.83;;
19179;SDS011;9722;48.754;8.868;2023-06-22T08:03:34;4.73;;;4.23;;
19179;SDS011;9722;48.754;8.868;2023-06-22T08:06:55;6.63;;;4.47;;
19179;SDS011;9722;48.754;8.868;2023-06-22T08:10:15;5.33;;;4.20;;
19179;SDS011;9722;48.754;8.868;2023-06-22T08:13:36;3.87;;;3.57;;
19179;SDS011;9722;48.754;8.868;2023-06-22T08:16:57;5.17;;;4.30;;
19179;SDS011;9722;48.754;8.868;2023-06-22T08:20:18;4.90;;;3.93;;
19179;SDS011;9722;48.754;8.868;2023-06-22T08:23:38;7.30;;;4.20;;
19179;SDS011;9722;48.754;8.868;2023-06-22T08:26:59;5.23;;;3.90;;
19179;SDS011;9722;48.754;8.868;2023-06-22T08:30:19;7.33;;;4.80;;
19179;SDS011;9722;48.754;8.868;2023-06-22T08:33:40;4.67;;;4.23;;
19179;SDS011;9722;48.754;8.868;2023-06-22T08:37:00;5.90;;;4.93;;
19179;SDS011;9722;48.754;8.868;2023-06-22T08:40:21;5.03;;;4.50;;
19179;SDS011;9722;48.754;8.868;2023-06-22T08:43:43;5.70;;;4.60;;
19179;SDS011;9722;48.754;8.868;2023-06-22T08:47:04;6.90;;;4.50;;
19179;SDS011;9722;48.754;8.868;2023-06-22T08:50:25;8.00;;;5.33;;
19179;SDS011;9722;48.754;8.868;2023-06-22T08:53:45;6.00;;;4.50;;
19179;SDS011;9722;48.754;8.868;2023-06-22T08:57:06;5.93;;;4.20;;
19179;SDS011;9722;48.754;8.868;2023-06-22T09:00:27;7.63;;;4.50;;
19179;SDS011;9722;48.754;8.868;2023-06-22T09:03:49;5.50;;;4.53;;
19179;SDS011;9722;48.754;8.868;2023-06-22T09:07:14;6.90;;;4.87;;
19179;SDS011;9722;48.754;8.868;2023-06-22T09:10:34;5.63;;;4.70;;
19179;SDS011;9722;48.754;8.868;2023-06-22T09:13:55;5.60;;;4.40;;
19179;SDS011;9722;48.754;8.868;2023-06-22T09:17:15;7.27;;;4.90;;
19179;SDS011;9722;48.754;8.868;2023-06-22T09:20:36;6.03;;;4.80;;
19179;SDS011;9722;48.754;8.868;2023-06-22T09:23:56;9.77;;;4.60;;
19179;SDS011;9722;48.754;8.868;2023-06-22T09:27:17;7.33;;;4.57;;
19179;SDS011;9722;48.754;8.868;2023-06-22T09:30:37;7.43;;;4.80;;
19179;SDS011;9722;48.754;8.868;2023-06-22T09:33:58;9.23;;;5.47;;
19179;SDS011;9722;48.754;8.868;2023-06-22T09:37:18;6.37;;;5.00;;
19179;SDS011;9722;48.754;8.868;2023-06-22T09:40:39;7.00;;;4.90;;
19179;SDS011;9722;48.754;8.868;2023-06-22T09:44:00;5.03;;;4.47;;
19179;SDS011;9722;48.754;8.868;2023-06-22T09:47:20;5.90;;;4.60;;
19179;SDS011;9722;48.754;8.868;2023-06-22T09:50:41;9.17;;;5.17;;
19179;SDS011;9722;48.754;8.868;2023-06-22T09:54:01;9.90;;;5.10;;
19179;SDS011;9722;48.754;8.868;2023-06-22T09:57:22;8.97;;;4.90;;
19179;SDS011;9722;48.754;8.868;2023-06-22T10:00:42;7.07;;;4.70;;
19179;SDS011;9722;48.754;8.868;2023-06-22T10:04:03;5.57;;;4.70;;
19179;SDS011;9722;48.754;8.868;2023-06-22T10:07:23;6.83;;;5.20;;
19179;SDS011;9722;48.754;8.868;2023-06-22T10:10:44;6.83;;;4.37;;
19179;SDS011;9722;48.754;8.868;2023-06-22T10:14:04;7.77;;;4.87;;
19179;SDS011;9722;48.754;8.868;2023-06-22T10:17:25;6.33;;;5.00;;
19179;SDS011;9722;48.754;8.868;2023-06-22T10:20:47;7.57;;;5.17;;
19179;SDS011;9722;48.754;8.868;2023-06-22T10:24:08;6.53;;;4.27;;
19179;SDS011;9722;48.754;8.868;2023-06-22T10:27:29;7.13;;;4.72;;
19179;SDS011;9722;48.754;8.868;2023-06-22T10:30:51;10.05;;;5.22;;
19179;SDS011;9722;48.754;8.868;2023-06-22T10:34:11;9.80;;;5.32;;
19179;SDS011;9722;48.754;8.868;2023-06-22T10:37:32;8.10;;;4.97;;
19179;SDS011;9722;48.754;8.868;2023-06-22T10:40:52;5.80;;;4.78;;
19179;SDS011;9722;48.754;8.868;2023-06-22T10:44:13;7.05;;;5.03;;
19179;SDS011;9722;48.754;8.868;2023-06-22T10:47:34;9.48;;;5.57;;
19179;SDS011;9722;48.754;8.868;2023-06-22T10:50:55;5.65;;;4.72;;
19179;SDS011;9722;48.754;8.868;2023-06-22T10:54:15;9.30;;;4.57;;
19179;SDS011;9722;48.754;8.868;2023-06-22T10:57:38;5.13;;;4.63;;
19179;SDS011;9722;48.754;8.868;2023-06-22T11:01:02;12.10;;;5.55;;
19179;SDS011;9722;48.754;8.868;2023-06-22T11:04:23;6.65;;;4.90;;
19179;SDS011;9722;48.754;8.868;2023-06-22T11:07:44;7.60;;;4.63;;
19179;SDS011;9722;48.754;8.868;2023-06-22T11:11:04;7.60;;;5.03;;
19179;SDS011;9722;48.754;8.868;2023-06-22T11:14:25;7.57;;;4.85;;
19179;SDS011;9722;48.754;8.868;2023-06-22T11:17:45;8.10;;;5.27;;
19179;SDS011;9722;48.754;8.868;2023-06-22T11:21:06;8.93;;;5.70;;
19179;SDS011;9722;48.754;8.868;2023-06-22T11:24:26;8.83;;;5.40;;
19179;SDS011;9722;48.754;8.868;2023-06-22T11:27:47;7.80;;;5.20;;
19179;SDS011;9722;48.754;8.868;2023-06-22T11:31:07;11.73;;;5.67;;
19179;SDS011;9722;48.754;8.868;2023-06-22T11:34:29;7.33;;;4.53;;
19179;SDS011;9722;48.754;8.868;2023-06-22T11:37:49;9.73;;;5.00;;
19179;SDS011;9722;48.754;8.868;2023-06-22T11:41:10;7.23;;;5.17;;
19179;SDS011;9722;48.754;8.868;2023-06-22T11:44:30;9.27;;;4.80;;
19179;SDS011;9722;48.754;8.868;2023-06-22T11:47:51;7.73;;;4.83;;
19179;SDS011;9722;48.754;8.868;2023-06-22T11:51:11;8.40;;;5.13;;
19179;SDS011;9722;48.754;8.868;2023-06-22T11:54:32;8.67;;;5.30;;
19179;SDS011;9722;48.754;8.868;2023-06-22T11:57:54;8.57;;;5.10;;
19179;SDS011;9722;48.754;8.868;2023-06-22T12:01:16;9.17;;;6.00;;
19179;SDS011;9722;48.754;8.868;2023-06-22T12:04:36;7.57;;;5.17;;
19179;SDS011;9722;48.754;8.868;2023-06-22T12:07:57;8.40;;;5.33;;
19179;SDS011;9722;48.754;8.868;2023-06-22T12:11:18;8.93;;;4.87;;
19179;SDS011;9722;48.754;8.868;2023-06-22T12:14:38;7.47;;;5.30;;
19179;SDS011;9722;48.754;8.868;2023-06-22T12:17:59;5.87;;;4.77;;
19179;SDS011;9722;48.754;8.868;2023-06-22T12:21:21;10.20;;;4.90;;
19179;SDS011;9722;48.754;8.868;2023-06-22T12:24:41;7.73;;;4.90;;
19179;SDS011;9722;48.754;8.868;2023-06-22T12:28:02;8.60;;;5.37;;
19179;SDS011;9722;48.754;8.868;2023-06-22T12:31:24;6.07;;;5.03;;
19179;SDS011;9722;48.754;8.868;2023-06-22T12:34:44;8.07;;;5.30;;
19179;SDS011;9722;48.754;8.868;2023-06-22T12:38:05;8.43;;;5.13;;
19179;SDS011;9722;48.754;8.868;2023-06-22T12:41:27;8.67;;;5.70;;
19179;SDS011;9722;48.754;8.868;2023-06-22T12:44:47;6.30;;;5.40;;
19179;SDS011;9722;48.754;8.868;2023-06-22T12:48:08;8.97;;;5.03;;
19179;SDS011;9722;48.754;8.868;2023-06-22T12:51:28;7.17;;;5.40;;
19179;SDS011;9722;48.754;8.868;2023-06-22T12:54:49;11.40;;;5.43;;
19179;SDS011;9722;48.754;8.868;2023-06-22T12:58:09;6.87;;;5.40;;
19179;SDS011;9722;48.754;8.868;2023-06-22T13:01:30;9.07;;;5.17;;
19179;SDS011;9722;48.754;8.868;2023-06-22T13:04:51;6.17;;;5.03;;
19179;SDS011;9722;48.754;8.868;2023-06-22T13:08:12;8.23;;;5.27;;
19179;SDS011;9722;48.754;8.868;2023-06-22T13:11:34;9.93;;;4.37;;
19179;SDS011;9722;48.754;8.868;2023-06-22T13:14:54;6.07;;;4.50;;
19179;SDS011;9722;48.754;8.868;2023-06-22T13:18:15;7.17;;;5.10;;
19179;SDS011;9722;48.754;8.868;2023-06-22T13:21:35;7.40;;;5.50;;
19179;SDS011;9722;48.754;8.868;2023-06-22T13:24:56;7.03;;;4.63;;
19179;SDS011;9722;48.754;8.868;2023-06-22T13:28:17;7.47;;;5.17;;
19179;SDS011;9722;48.754;8.868;2023-06-22T13:31:38;9.00;;;5.40;;
19179;SDS011;9722;48.754;8.868;2023-06-22T13:34:59;7.50;;;4.70;;
19179;SDS011;9722;48.754;8.868;2023-06-22T13:38:19;6.97;;;4.70;;
19179;SDS011;9722;48.754;8.868;2023-06-22T13:41:40;8.33;;;4.73;;
19179;SDS011;9722;48.754;8.868;2023-06-22T13:45:03;7.27;;;4.73;;
19179;SDS011;9722;48.754;8.868;2023-06-22T13:48:25;9.03;;;4.77;;
19179;SDS011;9722;48.754;8.868;2023-06-22T13:51:45;7.83;;;4.90;;
19179;SDS011;9722;48.754;8.868;2023-06-22T13:55:08;10.70;;;4.73;;
19179;SDS011;9722;48.754;8.868;2023-06-22T13:58:29;7.50;;;4.50;;
19179;SDS011;9722;48.754;8.868;2023-06-22T14:01:50;8.43;;;4.63;;
19179;SDS011;9722;48.754;8.868;2023-06-22T14:05:10;8.17;;;5.00;;
19179;SDS011;9722;48.754;8.868;2023-06-22T14:08:31;6.73;;;4.30;;
19179;SDS011;9722;48.754;8.868;2023-06-22T14:11:53;5.37;;;4.40;;
19179;SDS011;9722;48.754;8.868;2023-06-22T14:15:14;6.97;;;3.73;;
19179;SDS011;9722;48.754;8.868;2023-06-22T14:18:35;6.77;;;3.27;;
19179;SDS011;9722;48.754;8.868;2023-06-22T14:21:55;7.53;;;3.10;;
19179;SDS011;9722;48.754;8.868;2023-06-22T14:25:16;6.40;;;2.90;;
19179;SDS011;9722;48.754;8.868;2023-06-22T14:28:37;7.23;;;2.97;;
19179;SDS011;9722;48.754;8.868;2023-06-22T14:31:57;8.07;;;3.90;;
19179;SDS011;9722;48.754;8.868;2023-06-22T14:35:19;10.77;;;3.10;;
19179;SDS011;9722;48.754;8.868;2023-06-22T14:38:41;8.03;;;3.57;;
19179;SDS011;9722;48.754;8.868;2023-06-22T14:42:01;8.70;;;3.33;;
19179;SDS011;9722;48.754;8.868;2023-06-22T14:45:23;11.67;;;3.47;;
19179;SDS011;9722;48.754;8.868;2023-06-22T14:48:44;9.40;;;3.13;;
19179;SDS011;9722;48.754;8.868;2023-06-22T14:52:05;10.60;;;3.23;;
19179;SDS011;9722;48.754;8.868;2023-06-22T14:55:26;6.23;;;2.90;;
19179;SDS011;9722;48.754;8.868;2023-06-22T14:58:46;9.77;;;2.97;;
19179;SDS011;9722;48.754;8.868;2023-06-22T15:02:07;5.20;;;2.87;;
19179;SDS011;9722;48.754;8.868;2023-06-22T15:05:27;5.93;;;2.70;;
19179;SDS011;9722;48.754;8.868;2023-06-22T15:08:48;10.27;;;3.40;;
19179;SDS011;9722;48.754;8.868;2023-06-22T15:12:08;7.57;;;3.20;;
19179;SDS011;9722;48.754;8.868;2023-06-22T15:15:31;6.87;;;2.80;;
19179;SDS011;9722;48.754;8.868;2023-06-22T15:18:52;9.17;;;3.13;;
19179;SDS011;9722;48.754;8.868;2023-06-22T15:22:12;10.80;;;3.80;;
19179;SDS011;9722;48.754;8.868;2023-06-22T15:25:33;8.63;;;3.57;;
19179;SDS011;9722;48.754;8.868;2023-06-22T15:28:53;7.50;;;3.00;;
19179;SDS011;9722;48.754;8.868;2023-06-22T15:32:14;7.00;;;3.30;;
19179;SDS011;9722;48.754;8.868;2023-06-22T15:35:35;7.50;;;3.33;;
19179;SDS011;9722;48.754;8.868;2023-06-22T15:38:56;8.10;;;3.00;;
19179;SDS011;9722;48.754;8.868;2023-06-22T15:42:16;6.83;;;3.67;;
19179;SDS011;9722;48.754;8.868;2023-06-22T15:45:37;7.47;;;3.33;;
19179;SDS011;9722;48.754;8.868;2023-06-22T15:48:57;10.40;;;3.13;;
19179;SDS011;9722;48.754;8.868;2023-06-22T15:52:17;5.27;;;2.80;;
19179;SDS011;9722;48.754;8.868;2023-06-22T15:55:39;10.20;;;3.63;;
19179;SDS011;9722;48.754;8.868;2023-06-22T15:58:59;7.03;;;3.93;;
19179;SDS011;9722;48.754;8.868;2023-06-22T16:02:21;5.27;;;3.20;;
19179;SDS011;9722;48.754;8.868;2023-06-22T16:05:41;10.70;;;3.30;;
19179;SDS011;9722;48.754;8.868;2023-06-22T16:09:02;7.63;;;3.40;;
19179;SDS011;9722;48.754;8.868;2023-06-22T16:12:24;5.63;;;3.10;;
19179;SDS011;9722;48.754;8.868;2023-06-22T16:15:46;8.20;;;3.00;;
19179;SDS011;9722;48.754;8.868;2023-06-22T16:19:07;7.07;;;3.47;;
19179;SDS011;9722;48.754;8.868;2023-06-22T16:22:27;5.13;;;3.17;;
19179;SDS011;9722;48.754;8.868;2023-06-22T16:25:48;5.70;;;2.43;;
19179;SDS011;9722;48.754;8.868;2023-06-22T16:29:09;4.73;;;2.50;;
19179;SDS011;9722;48.754;8.868;2023-06-22T16:32:30;9.13;;;2.77;;
19179;SDS011;9722;48.754;8.868;2023-06-22T16:35:50;7.70;;;2.77;;
19179;SDS011;9722;48.754;8.868;2023-06-22T16:39:11;8.17;;;3.13;;
19179;SDS011;9722;48.754;8.868;2023-06-22T16:42:31;7.47;;;2.97;;
19179;SDS011;9722;48.754;8.868;2023-06-22T16:45:52;6.77;;;3.00;;
19179;SDS011;9722;48.754;8.868;2023-06-22T16:49:12;9.57;;;3.40;;
19179;SDS011;9722;48.754;8.868;2023-06-22T16:52:33;7.53;;;3.30;;
19179;SDS011;9722;48.754;8.868;2023-06-22T16:55:54;7.07;;;3.70;;
19179;SDS011;9722;48.754;8.868;2023-06-22T16:59:14;6.60;;;2.80;;
19179;SDS011;9722;48.754;8.868;2023-06-22T17:02:38;9.13;;;3.10;;
19179;SDS011;9722;48.754;8.868;2023-06-22T17:06:04;5.37;;;3.10;;
19179;SDS011;9722;48.754;8.868;2023-06-22T17:09:26;9.97;;;3.30;;
19179;SDS011;9722;48.754;8.868;2023-06-22T17:12:50;6.13;;;3.80;;
19179;SDS011;9722;48.754;8.868;2023-06-22T17:16:10;8.80;;;3.37;;
19179;SDS011;9722;48.754;8.868;2023-06-22T17:19:31;6.63;;;3.20;;
19179;SDS011;9722;48.754;8.868;2023-06-22T17:22:52;7.30;;;3.20;;
19179;SDS011;9722;48.754;8.868;2023-06-22T17:26:12;8.07;;;3.30;;
19179;SDS011;9722;48.754;8.868;2023-06-22T17:29:35;9.37;;;3.63;;
19179;SDS011;9722;48.754;8.868;2023-06-22T17:32:57;6.47;;;3.47;;
19179;SDS011;9722;48.754;8.868;2023-06-22T17:36:17;7.07;;;3.20;;
19179;SDS011;9722;48.754;8.868;2023-06-22T17:39:38;6.40;;;3.33;;
19179;SDS011;9722;48.754;8.868;2023-06-22T17:43:02;11.63;;;3.73;;
19179;SDS011;9722;48.754;8.868;2023-06-22T17:46:24;8.17;;;3.57;;
19179;SDS011;9722;48.754;8.868;2023-06-22T17:49:50;5.97;;;3.20;;
19179;SDS011;9722;48.754;8.868;2023-06-22T17:53:11;7.90;;;3.00;;
19179;SDS011;9722;48.754;8.868;2023-06-22T17:56:32;6.63;;;2.93;;
19179;SDS011;9722;48.754;8.868;2023-06-22T17:59:53;6.90;;;2.93;;
19179;SDS011;9722;48.754;8.868;2023-06-22T18:03:13;9.47;;;3.53;;
19179;SDS011;9722;48.754;8.868;2023-06-22T18:06:38;4.73;;;2.83;;
19179;SDS011;9722;48.754;8.868;2023-06-22T18:10:00;6.93;;;3.50;;
19179;SDS011;9722;48.754;8.868;2023-06-22T18:13:21;14.30;;;3.43;;
19179;SDS011;9722;48.754;8.868;2023-06-22T18:16:47;5.63;;;3.07;;
19179;SDS011;9722;48.754;8.868;2023-06-22T18:20:09;7.00;;;2.90;;
19179;SDS011;9722;48.754;8.868;2023-06-22T18:23:31;8.40;;;2.90;;
19179;SDS011;9722;48.754;8.868;2023-06-22T18:26:56;4.87;;;3.00;;
19179;SDS011;9722;48.754;8.868;2023-06-22T18:30:17;7.93;;;3.20;;
19179;SDS011;9722;48.754;8.868;2023-06-22T18:33:39;5.10;;;2.27;;
19179;SDS011;9722;48.754;8.868;2023-06-22T18:37:00;5.30;;;2.50;;
19179;SDS011;9722;48.754;8.868;2023-06-22T18:40:25;3.90;;;2.63;;
19179;SDS011;9722;48.754;8.868;2023-06-22T18:43:46;5.13;;;2.90;;
19179;SDS011;9722;48.754;8.868;2023-06-22T18:47:07;6.67;;;2.63;;
19179;SDS011;9722;48.754;8.868;2023-06-22T18:50:42;4.73;;;2.63;;
19179;SDS011;9722;48.754;8.868;2023-06-22T18:54:03;5.03;;;2.70;;
19179;SDS011;9722;48.754;8.868;2023-06-22T18:57:26;6.03;;;2.30;;
19179;SDS011;9722;48.754;8.868;2023-06-22T19:00:53;11.07;;;2.87;;
19179;SDS011;9722;48.754;8.868;2023-06-22T19:04:34;4.37;;;2.37;;
19179;SDS011;9722;48.754;8.868;2023-06-22T19:11:16;2.90;;;1.93;;
19179;SDS011;9722;48.754;8.868;2023-06-22T19:14:36;6.40;;;2.90;;
19179;SDS011;9722;48.754;8.868;2023-06-22T19:17:59;2.97;;;2.37;;
19179;SDS011;9722;48.754;8.868;2023-06-22T19:21:33;8.97;;;2.67;;
19179;SDS011;9722;48.754;8.868;2023-06-22T19:24:54;4.77;;;2.50;;
19179;SDS011;9722;48.754;8.868;2023-06-22T19:28:19;4.40;;;2.37;;
19179;SDS011;9722;48.754;8.868;2023-06-22T19:31:41;3.30;;;2.10;;
19179;SDS011;9722;48.754;8.868;2023-06-22T19:35:03;6.57;;;2.50;;
19179;SDS011;9722;48.754;8.868;2023-06-22T19:38:26;4.90;;;2.53;;
19179;SDS011;9722;48.754;8.868;2023-06-22T19:41:47;3.90;;;2.30;;
19179;SDS011;9722;48.754;8.868;2023-06-22T19:45:08;5.00;;;2.13;;
19179;SDS011;9722;48.754;8.868;2023-06-22T19:48:33;5.60;;;2.73;;
19179;SDS011;9722;48.754;8.868;2023-06-22T19:51:54;4.70;;;2.40;;
19179;SDS011;9722;48.754;8.868;2023-06-22T19:55:14;7.50;;;2.83;;
19179;SDS011;9722;48.754;8.868;2023-06-22T19:58:35;6.27;;;2.80;;
19179;SDS011;9722;48.754;8.868;2023-06-22T20:01:55;3.83;;;2.07;;
19179;SDS011;9722;48.754;8.868;2023-06-22T20:05:19;4.10;;;2.80;;
19179;SDS011;9722;48.754;8.868;2023-06-22T20:08:47;6.73;;;2.67;;
19179;SDS011;9722;48.754;8.868;2023-06-22T20:12:16;8.30;;;3.40;;
19179;SDS011;9722;48.754;8.868;2023-06-22T20:15:43;6.63;;;3.30;;
19179;SDS011;9722;48.754;8.868;2023-06-22T20:19:11;3.77;;;2.90;;
19179;SDS011;9722;48.754;8.868;2023-06-22T20:22:40;6.97;;;3.13;;
19179;SDS011;9722;48.754;8.868;2023-06-22T20:26:01;4.70;;;2.97;;
19179;SDS011;9722;48.754;8.868;2023-06-22T20:29:40;4.13;;;3.37;;
19179;SDS011;9722;48.754;8.868;2023-06-22T20:33:00;3.83;;;2.67;;
19179;SDS011;9722;48.754;8.868;2023-06-22T20:36:25;3.27;;;2.50;;
19179;SDS011;9722;48.754;8.868;2023-06-22T20:39:46;3.23;;;2.27;;
19179;SDS011;9722;48.754;8.868;2023-06-22T20:43:06;3.53;;;2.60;;